Time;durP1;ratioP1;P1;durP2;ratioP2;P2;SDS_P1;SDS_P2;PMS_P1;PMS_P2;Temp;Humidity;BMP_temperature;BMP_pressure;BME280_temperature;BME280_humidity;BME280_pressure;Samples;Min_cycle;Max_cycle;Signal;HPM_P1;HPM_P2
2024/04/08 00:02:29;;;;;;;1.25;0.90;;;;;;;14.51;94.79;152332.53;10567146;28;20406;-74
2024/04/08 00:07:30;;;;;;;2.65;1.13;;;;;;;14.77;93.95;152398.59;10566698;28;20031;-75
2024/04/08 00:12:31;;;;;;;1.75;0.98;;;;;;;14.87;93.86;152423.19;10567576;28;20075;-73
2024/04/08 00:17:31;;;;;;;2.50;1.35;;;;;;;14.78;93.95;152399.88;10566643;28;20067;-74
2024/04/08 00:22:32;;;;;;;2.22;1.13;;;;;;;14.59;94.60;152351.97;10548630;28;20404;-73
2024/04/08 00:27:33;;;;;;;2.15;1.20;;;;;;;14.67;93.93;152372.69;10566455;28;20051;-73
2024/04/08 00:32:34;;;;;;;1.33;1.02;;;;;;;14.56;94.42;152344.19;10567145;28;20044;-73
2024/04/08 00:37:35;;;;;;;1.23;1.00;;;;;;;14.75;94.17;152393.44;10565270;28;20400;-74
2024/04/08 00:42:36;;;;;;;2.40;1.20;;;;;;;14.53;94.66;152336.44;10565583;28;20503;-73
2024/04/08 00:47:37;;;;;;;1.42;1.02;;;;;;;14.47;96.64;152320.81;10564816;28;20036;-73
2024/04/08 00:52:38;;;;;;;2.38;1.42;;;;;;;14.41;96.67;152306.59;10564851;28;20137;-73
2024/04/08 00:57:39;;;;;;;1.58;1.08;;;;;;;14.49;94.46;152327.38;10564904;28;20031;-73
2024/04/08 01:02:40;;;;;;;2.15;1.35;;;;;;;14.29;96.63;152275.50;10565583;28;20059;-73
2024/04/08 01:07:42;;;;;;;1.80;1.20;;;;;;;14.73;94.47;152388.22;10564768;28;20035;-74
2024/04/08 01:12:43;;;;;;;2.50;1.27;;;;;;;14.53;95.13;152337.72;10563717;28;20040;-74
2024/04/08 01:17:48;;;;;;;4.80;1.08;;;;;;;14.43;94.69;152310.47;10563434;28;20039;-73
2024/04/08 01:22:54;;;;;;;1.52;1.20;;;;;;;14.67;90.68;152371.41;10563288;28;20080;-73
2024/04/08 01:27:55;;;;;;;1.85;0.75;;;;;;;14.56;90.40;152344.19;10563332;28;20400;-73
2024/04/08 01:32:55;;;;;;;1.17;0.95;;;;;;;14.75;89.32;152393.44;10563283;28;20050;-73
2024/04/08 01:37:56;;;;;;;1.50;1.08;;;;;;;14.68;89.33;152373.97;10572400;28;20541;-73
2024/04/08 01:42:57;;;;;;;1.20;0.80;;;;;;;14.59;89.91;152353.25;10572430;28;20410;-73
2024/04/08 01:47:58;;;;;;;1.08;0.95;;;;;;;14.88;90.65;152427.09;10571840;28;20559;-74
2024/04/08 01:52:58;;;;;;;1.33;1.00;;;;;;;14.87;91.33;152424.53;10571501;28;20122;-74
2024/04/08 01:57:59;;;;;;;1.50;1.00;;;;;;;14.63;93.75;152363.63;10571251;28;20036;-74
2024/04/08 02:03:00;;;;;;;1.75;0.95;;;;;;;14.70;91.80;152380.47;10571060;28;20073;-74
2024/04/08 02:08:01;;;;;;;3.10;1.02;;;;;;;14.35;93.70;152291.09;10570704;28;20031;-73
2024/04/08 02:13:02;;;;;;;2.95;1.05;;;;;;;14.08;95.49;152223.75;10570855;28;20069;-74
2024/04/08 02:18:03;;;;;;;2.88;1.38;;;;;;;13.91;96.25;152179.75;10570575;28;20385;-74
2024/04/08 02:23:03;;;;;;;1.65;1.23;;;;;;;13.91;96.30;152179.75;10570950;28;20090;-74
2024/04/08 02:28:04;;;;;;;1.65;0.98;;;;;;;13.82;95.96;152157.75;10570827;28;20086;-73
2024/04/08 02:33:05;;;;;;;1.77;1.10;;;;;;;13.85;95.70;152164.19;10570806;28;20032;-74
2024/04/08 02:38:07;;;;;;;1.85;1.33;;;;;;;13.92;94.86;152182.31;10570314;28;20135;-73
2024/04/08 02:43:08;;;;;;;3.28;1.00;;;;;;;14.17;90.59;152245.78;10569466;28;20040;-73
2024/04/08 02:48:09;;;;;;;1.10;0.85;;;;;;;14.26;89.54;152269.06;10569920;28;20036;-73
2024/04/08 02:53:10;;;;;;;2.00;1.60;;;;;;;14.50;87.41;152329.94;10569571;28;20036;-74
2024/04/08 02:58:11;;;;;;;1.98;1.10;;;;;;;14.60;86.12;152355.84;10569134;28;20032;-74
2024/04/08 03:03:12;;;;;;;1.27;1.00;;;;;;;14.62;85.75;152359.75;10569132;28;20467;-73
2024/04/08 03:08:13;;;;;;;1.40;0.93;;;;;;;14.95;82.76;152443.91;10569032;28;20499;-74
2024/04/08 03:13:14;;;;;;;2.25;0.90;;;;;;;15.00;82.11;152455.56;10569662;28;20054;-74
2024/04/08 03:18:15;;;;;;;1.85;0.82;;;;;;;15.10;80.89;152481.50;10569094;28;20467;-74
2024/04/08 03:23:15;;;;;;;1.73;0.82;;;;;;;15.07;80.93;152475.03;10551315;28;20146;-74
2024/04/08 03:28:16;;;;;;;1.30;0.88;;;;;;;15.38;78.26;152552.75;10568118;28;20058;-73
2024/04/08 03:33:21;;;;;;;1.33;0.90;;;;;;;15.33;78.52;152539.81;10568574;28;20053;-73
2024/04/08 03:38:22;;;;;;;0.98;0.90;;;;;;;15.17;79.28;152498.34;10567844;28;20044;-74
2024/04/08 03:43:23;;;;;;;1.45;1.10;;;;;;;15.24;78.89;152516.50;10567226;28;20036;-74
2024/04/08 03:48:24;;;;;;;1.60;0.80;;;;;;;15.26;79.09;152522.94;10566479;28;20047;-74
2024/04/08 03:53:25;;;;;;;4.68;2.28;;;;;;;15.12;79.87;152487.97;10566307;28;20084;-74
2024/04/08 03:58:26;;;;;;;1.77;1.30;;;;;;;15.19;79.93;152503.53;10566088;28;20122;-74
2024/04/08 04:03:27;;;;;;;2.47;1.17;;;;;;;15.02;80.78;152460.78;10549785;28;20142;-74
2024/04/08 04:08:28;;;;;;;2.20;1.08;;;;;;;14.82;81.77;152411.53;10566741;28;20031;-74
2024/04/08 04:13:29;;;;;;;2.55;1.10;;;;;;;14.78;82.34;152399.88;10565811;28;20032;-74
2024/04/08 04:18:30;;;;;;;1.83;1.00;;;;;;;14.84;82.42;152415.44;10566087;28;20039;-74
2024/04/08 04:23:31;;;;;;;2.08;0.90;;;;;;;14.75;83.45;152392.13;10565880;28;20039;-74
2024/04/08 04:28:32;;;;;;;1.88;1.30;;;;;;;14.71;85.60;152383.06;10548517;28;20473;-74
2024/04/08 04:33:33;;;;;;;1.73;1.20;;;;;;;14.62;86.59;152361.03;10565394;28;20164;-74
2024/04/08 04:38:33;;;;;;;2.67;1.42;;;;;;;14.53;87.37;152336.44;10564985;28;20036;-74
2024/04/08 04:43:34;;;;;;;2.58;1.52;;;;;;;14.60;87.90;152354.53;10565597;28;20047;-74
2024/04/08 04:48:35;;;;;;;1.95;1.33;;;;;;;14.61;89.12;152357.19;10548211;28;20461;-74
2024/04/08 04:53:36;;;;;;;3.40;2.10;;;;;;;14.62;89.79;152359.75;10565967;28;20149;-75
2024/04/08 04:58:36;;;;;;;1.80;1.42;;;;;;;14.68;89.59;152375.28;10564904;28;20192;-74
2024/04/08 05:03:37;;;;;;;2.25;2.05;;;;;;;14.63;89.80;152363.63;10564793;28;20422;-73
2024/04/08 05:08:38;;;;;;;3.35;1.90;;;;;;;14.87;88.21;152424.53;10546617;28;20066;-74
2024/04/08 05:13:39;;;;;;;2.65;1.52;;;;;;;14.85;88.80;152418.03;10565454;28;20487;-74
2024/04/08 05:18:40;;;;;;;1.60;1.50;;;;;;;14.82;89.51;152411.53;10565273;28;20502;-74
2024/04/08 05:23:43;;;;;;;2.10;1.90;;;;;;;15.10;88.89;152481.50;10563722;28;20065;-75
2024/04/08 05:28:44;;;;;;;3.38;1.80;;;;;;;15.29;88.98;152530.72;10530122;28;20081;-75
2024/04/08 05:33:44;;;;;;;2.33;1.63;;;;;;;15.20;89.34;152506.13;10563576;28;20036;-74
2024/04/08 05:38:45;;;;;;;2.35;1.55;;;;;;;15.33;89.16;152541.09;10563691;28;20161;-74
2024/04/08 05:43:46;;;;;;;3.33;2.00;;;;;;;15.54;88.22;152594.25;10565895;28;20043;-75
2024/04/08 05:48:47;;;;;;;2.70;1.67;;;;;;;15.49;88.82;152581.25;10563523;28;20064;-75
2024/04/08 05:53:48;;;;;;;5.72;1.88;;;;;;;15.64;88.00;152620.19;10563640;28;20039;-75
2024/04/08 05:58:49;;;;;;;2.05;1.80;;;;;;;15.89;87.15;152682.38;10547535;28;20092;-75
2024/04/08 06:03:50;;;;;;;2.53;1.98;;;;;;;15.75;88.10;152646.09;10565723;28;20457;-75
2024/04/08 06:09:03;;;;;;;1.95;1.60;;;;;;;16.12;86.27;152740.75;10566059;28;20040;-74
2024/04/08 06:14:03;;;;;;;4.25;1.92;;;;;;;16.37;84.31;152805.53;10565671;28;20086;-73
2024/04/08 06:19:04;;;;;;;2.53;1.92;;;;;;;16.62;83.39;152869.09;10548487;28;20036;-74
2024/04/08 06:24:05;;;;;;;3.30;1.98;;;;;;;16.94;81.74;152948.25;10572852;28;20134;-74
2024/04/08 06:29:06;;;;;;;3.25;1.58;;;;;;;17.16;79.60;153005.34;10555689;28;20068;-75
2024/04/08 06:34:07;;;;;;;3.72;1.50;;;;;;;17.48;78.01;153085.78;10573027;28;20044;-74
2024/04/08 06:39:08;;;;;;;2.63;1.75;;;;;;;17.89;75.34;153190.97;10554777;28;20067;-75
2024/04/08 06:44:09;;;;;;;2.67;1.60;;;;;;;18.11;74.03;153246.81;10571446;28;20089;-74
2024/04/08 06:49:10;;;;;;;3.55;1.63;;;;;;;18.25;74.11;153283.13;10571356;28;20046;-75
2024/04/08 06:54:10;;;;;;;3.60;1.80;;;;;;;18.42;73.28;153326.00;10573034;28;20483;-74
2024/04/08 06:59:11;;;;;;;2.03;1.70;;;;;;;18.58;71.84;153367.50;10571815;28;20519;-74
2024/04/08 07:04:13;;;;;;;4.35;1.85;;;;;;;18.72;71.21;153401.34;10574721;28;20039;-74
2024/04/08 07:09:14;;;;;;;3.10;1.70;;;;;;;18.84;71.59;153433.81;10558656;28;20036;-74
2024/04/08 07:14:15;;;;;;;2.83;1.80;;;;;;;18.98;72.44;153467.56;10557133;28;20046;-76
2024/04/08 07:19:16;;;;;;;1.67;1.55;;;;;;;19.26;70.89;153540.34;10557893;28;20177;-76
2024/04/08 07:24:17;;;;;;;2.85;1.50;;;;;;;19.65;69.03;153640.41;10575133;28;20055;-75
2024/04/08 07:29:17;;;;;;;2.28;1.50;;;;;;;19.77;68.73;153670.31;10540278;28;20044;-76
2024/04/08 07:34:19;;;;;;;2.58;1.35;;;;;;;19.99;68.46;153726.22;10574850;28;20126;-76
2024/04/08 07:39:20;;;;;;;2.58;1.60;;;;;;;20.04;70.81;153739.19;10569963;28;20047;-76
2024/04/08 07:44:21;;;;;;;1.20;1.10;;;;;;;20.21;70.45;153780.81;10569125;28;20048;-75
2024/04/08 07:49:22;;;;;;;1.60;1.50;;;;;;;20.41;68.83;153834.13;10552379;28;20495;-75
2024/04/08 07:54:23;;;;;;;2.53;1.40;;;;;;;20.76;65.25;153921.25;10568364;28;20032;-74
2024/04/08 07:59:24;;;;;;;1.88;1.27;;;;;;;21.06;63.31;153998.00;10551433;28;20441;-74
2024/04/08 08:04:24;;;;;;;1.75;0.88;;;;;;;21.56;60.67;154126.88;10551484;28;20040;-74
2024/04/08 08:09:25;;;;;;;1.50;0.90;;;;;;;22.02;58.63;154243.97;10550818;28;20070;-74
2024/04/08 08:14:26;;;;;;;1.25;0.88;;;;;;;22.22;57.15;154293.47;10567598;28;20046;-74
2024/04/08 08:19:27;;;;;;;1.40;0.90;;;;;;;22.61;57.28;154393.72;10566733;28;20569;-74
2024/04/08 08:24:27;;;;;;;4.32;1.33;;;;;;;22.36;57.82;154329.97;10567286;28;20054;-74
2024/04/08 08:29:29;;;;;;;1.58;1.42;;;;;;;22.33;57.03;154322.13;10567865;28;20047;-75
2024/04/08 08:34:30;;;;;;;2.65;1.20;;;;;;;22.76;53.72;154431.53;10551110;28;20051;-75
2024/04/08 08:41:04;;;;;;;1.75;1.10;;;;;;;22.92;54.00;154474.50;11400890;25;20545;-75
2024/04/08 08:46:06;;;;;;;2.40;1.00;;;;;;;23.08;54.37;154513.59;11400949;26;20037;-74
2024/04/08 08:51:10;;;;;;;1.45;1.10;;;;;;;23.12;55.55;154524.03;11401221;25;20066;-75
2024/04/08 08:56:17;;;;;;;2.35;1.02;;;;;;;23.39;54.05;154594.34;11401724;25;19997;-75
2024/04/08 09:01:20;;;;;;;5.97;2.45;;;;;;;23.69;52.59;154668.69;11402164;25;20342;-74
2024/04/08 09:06:22;;;;;;;5.65;1.10;;;;;;;23.74;53.82;154683.00;11399710;26;20038;-75
2024/04/08 09:11:23;;;;;;;1.33;1.00;;;;;;;24.04;52.30;154759.91;11400767;25;20370;-75
2024/04/08 09:16:25;;;;;;;2.67;1.27;;;;;;;24.41;53.09;154855.06;11399586;25;20144;-75
2024/04/08 09:21:27;;;;;;;1.88;1.00;;;;;;;24.31;52.59;154828.97;11398611;26;20398;-75
2024/04/08 09:26:31;;;;;;;2.55;0.75;;;;;;;24.96;50.46;154994.53;11398884;26;19997;-74
2024/04/08 09:31:33;;;;;;;2.00;1.17;;;;;;;25.39;50.24;155105.47;11399596;25;20351;-74
2024/04/08 09:36:35;;;;;;;2.25;0.93;;;;;;;25.70;47.17;155182.44;11399145;26;20029;-75
2024/04/08 09:41:39;;;;;;;2.20;1.08;;;;;;;25.60;49.29;155157.66;11399923;25;20009;-75
2024/04/08 09:46:41;;;;;;;1.35;1.00;;;;;;;26.10;48.65;155285.53;11402729;26;20472;-74
2024/04/08 09:51:46;;;;;;;2.72;1.00;;;;;;;25.93;46.57;155242.47;11373321;25;20002;-75
2024/04/08 09:56:51;;;;;;;1.80;0.83;;;;;;;26.16;46.81;155302.53;11367132;26;20009;-75
2024/04/08 10:01:54;;;;;;;1.42;0.85;;;;;;;26.00;45.57;155260.75;11366281;26;20066;-74
2024/04/08 10:06:56;;;;;;;8.43;2.13;;;;;;;26.27;45.77;155328.59;11366796;26;20544;-75
2024/04/08 10:12:03;;;;;;;1.23;0.70;;;;;;;26.51;44.64;155389.97;11365823;26;20026;-75
2024/04/08 10:17:05;;;;;;;1.73;0.90;;;;;;;26.66;44.67;155430.47;11366278;26;20002;-74
2024/04/08 10:22:12;;;;;;;3.05;1.05;;;;;;;26.62;44.37;155418.72;11365775;26;20008;-74
2024/04/08 10:27:14;;;;;;;2.42;1.27;;;;;;;26.30;44.81;155337.75;11364644;26;20006;-74
2024/04/08 10:32:16;;;;;;;1.75;0.70;;;;;;;26.15;45.17;155298.56;11363615;26;20075;-75
2024/04/08 10:37:18;;;;;;;2.40;0.90;;;;;;;26.26;44.42;155326.00;11369025;26;20051;-75
2024/04/08 10:42:25;;;;;;;2.80;1.00;;;;;;;26.34;44.34;155348.19;11367009;26;20022;-75
2024/04/08 10:47:28;;;;;;;1.05;0.70;;;;;;;26.44;44.16;155371.72;11367513;26;20082;-75
2024/04/08 10:52:35;;;;;;;8.35;1.10;;;;;;;26.67;43.99;155431.75;11368454;26;19998;-75
2024/04/08 10:57:38;;;;;;;2.55;0.88;;;;;;;26.83;44.18;155472.25;11368183;26;20442;-78
2024/04/08 11:02:40;;;;;;;1.38;1.10;;;;;;;26.49;45.39;155386.06;11366598;26;20038;-74
2024/04/08 11:07:42;;;;;;;2.05;1.13;;;;;;;26.71;43.96;155442.19;11367390;26;20398;-74
2024/04/08 11:12:46;;;;;;;1.98;1.00;;;;;;;26.63;42.99;155421.31;11365161;26;19998;-75
2024/04/08 11:17:54;;;;;;;2.00;0.90;;;;;;;26.61;43.03;155416.13;11366696;26;20496;-74
2024/04/08 11:22:56;;;;;;;1.75;0.98;;;;;;;26.93;43.14;155498.34;11368004;26;20066;-75
2024/04/08 11:27:59;;;;;;;0.80;0.70;;;;;;;27.22;43.37;155571.47;11366406;26;20337;-77
2024/04/08 11:33:02;;;;;;;1.38;0.73;;;;;;;27.90;40.63;155746.53;11367758;26;20002;-75
2024/04/08 11:38:06;;;;;;;2.05;1.00;;;;;;;27.94;39.74;155757.00;11366201;26;19994;-75
2024/04/08 11:43:26;;;;;;;0.98;0.70;;;;;;;28.16;38.61;155813.19;11366326;26;20082;-75
2024/04/08 11:48:28;;;;;;;3.65;1.00;;;;;;;28.57;38.76;155917.75;11365673;26;20006;-75
2024/04/08 11:53:31;;;;;;;2.15;0.98;;;;;;;28.42;37.76;155879.81;11364117;26;20006;-74
2024/04/08 11:58:33;;;;;;;0.85;0.75;;;;;;;28.12;36.92;155802.72;11365939;26;19994;-75
2024/04/08 12:03:34;;;;;;;2.80;0.95;;;;;;;28.02;37.50;155776.56;11364288;26;20044;-75
2024/04/08 12:08:36;;;;;;;1.80;0.90;;;;;;;28.22;37.31;155827.53;11363668;26;20331;-76
2024/04/08 12:13:38;;;;;;;1.95;0.82;;;;;;;28.39;36.68;155872.00;11361845;26;20010;-76
2024/04/08 12:18:44;;;;;;;1.75;1.00;;;;;;;28.16;38.01;155814.47;11363362;26;19994;-74
2024/04/08 12:23:46;;;;;;;2.50;0.95;;;;;;;27.94;39.07;155755.69;11363132;26;20477;-77
2024/04/08 12:28:48;;;;;;;3.50;1.00;;;;;;;27.81;37.67;155724.34;11360624;26;20333;-76
2024/04/08 12:33:50;;;;;;;1.83;0.75;;;;;;;27.79;38.66;155719.09;11362406;26;20012;-75
2024/04/08 12:38:52;;;;;;;1.38;1.00;;;;;;;27.74;39.34;155704.75;11362002;26;20022;-76
2024/04/08 12:43:54;;;;;;;2.67;1.10;;;;;;;27.88;39.78;155742.59;11358962;26;20051;-75
2024/04/08 12:48:56;;;;;;;1.83;1.17;;;;;;;27.95;39.39;155759.59;11359056;26;19998;-75
2024/04/08 12:53:58;;;;;;;3.40;1.83;;;;;;;28.22;37.26;155827.53;11359133;26;20014;-75
2024/04/08 12:59:00;;;;;;;1.88;0.93;;;;;;;28.35;38.54;155862.84;11358612;26;20013;-74
2024/04/08 13:04:03;;;;;;;1.42;0.90;;;;;;;28.33;37.32;155856.25;11358722;26;20012;-75
2024/04/08 13:09:07;;;;;;;1.50;0.85;;;;;;;28.41;38.84;155878.50;11356737;26;20003;-74
2024/04/08 13:14:09;;;;;;;1.67;0.95;;;;;;;28.63;37.58;155934.69;11358227;26;20010;-74
2024/04/08 13:19:11;;;;;;;1.45;1.00;;;;;;;28.55;36.69;155912.47;11358230;26;20055;-74
2024/04/08 13:24:13;;;;;;;2.45;1.23;;;;;;;28.53;36.18;155907.28;11360221;26;19998;-74
2024/04/08 13:29:16;;;;;;;1.48;0.82;;;;;;;28.29;34.70;155845.78;11365580;26;20360;-75
2024/04/08 13:34:18;;;;;;;1.23;0.80;;;;;;;28.20;35.86;155822.28;11363049;26;20334;-75
2024/04/08 13:39:20;;;;;;;3.65;1.50;;;;;;;27.89;37.17;155745.25;11365650;26;20009;-74
2024/04/08 13:44:22;;;;;;;1.73;0.80;;;;;;;27.75;37.61;155708.63;11366195;26;20006;-74
2024/04/08 13:49:24;;;;;;;1.58;0.77;;;;;;;27.77;37.22;155713.88;11365439;26;20070;-74
2024/04/08 13:54:27;;;;;;;1.73;0.90;;;;;;;27.63;39.44;155677.28;11363745;26;20434;-74
2024/04/08 13:59:29;;;;;;;2.78;0.90;;;;;;;27.55;39.77;155656.38;11364749;26;19994;-74
2024/04/08 14:04:31;;;;;;;2.17;1.13;;;;;;;27.70;39.11;155695.53;11364595;26;20008;-75
2024/04/08 14:09:33;;;;;;;1.10;0.85;;;;;;;27.57;39.74;155661.56;11300451;26;20003;-74
2024/04/08 14:14:35;;;;;;;3.80;1.20;;;;;;;27.54;39.76;155653.78;11290166;26;20006;-73
2024/04/08 14:19:37;;;;;;;2.88;1.17;;;;;;;27.51;40.37;155647.22;11290105;26;19999;-74
2024/04/08 14:24:40;;;;;;;2.60;0.90;;;;;;;27.32;40.57;155598.94;11289214;26;20383;-75
2024/04/08 14:29:44;;;;;;;2.42;1.00;;;;;;;27.19;41.75;155564.97;11288932;26;20035;-74
2024/04/08 14:34:53;;;;;;;1.27;0.65;;;;;;;27.13;40.69;155550.56;11288696;26;20010;-74
2024/04/08 14:39:55;;;;;;;2.55;1.02;;;;;;;27.21;40.96;155570.19;11289021;26;19991;-74
2024/04/08 14:44:57;;;;;;;2.00;1.00;;;;;;;27.22;40.59;155571.47;11289321;26;20006;-74
2024/04/08 14:50:06;;;;;;;2.08;1.00;;;;;;;27.26;40.94;155581.94;11289103;26;20003;-76
2024/04/08 14:55:09;;;;;;;1.83;0.80;;;;;;;27.00;41.10;155516.59;11288738;26;20334;-74
2024/04/08 15:00:13;;;;;;;2.22;0.98;;;;;;;26.90;42.83;155490.50;11286495;26;20013;-75
2024/04/08 15:05:15;;;;;;;1.45;0.90;;;;;;;26.68;43.21;155434.34;11287837;26;20021;-74
2024/04/08 15:10:20;;;;;;;1.30;0.82;;;;;;;26.64;43.78;155423.91;11287768;26;20040;-75
2024/04/08 15:15:22;;;;;;;3.25;1.23;;;;;;;26.54;44.07;155399.13;11287130;26;20005;-74
2024/04/08 15:20:24;;;;;;;1.70;1.10;;;;;;;26.63;45.27;155422.63;11288583;26;20003;-74
2024/04/08 15:25:26;;;;;;;1.55;1.08;;;;;;;26.65;45.10;155427.84;11285783;26;20020;-74
2024/04/08 15:30:28;;;;;;;2.22;0.90;;;;;;;26.66;44.59;155430.47;11286784;26;20335;-73
2024/04/08 15:35:30;;;;;;;1.60;1.00;;;;;;;26.54;45.51;155397.81;11286531;26;20006;-74
2024/04/08 15:40:32;;;;;;;1.38;1.05;;;;;;;26.33;45.25;155344.25;11287406;26;19998;-75
2024/04/08 15:45:34;;;;;;;2.45;1.20;;;;;;;26.36;45.74;155353.41;11283733;26;20007;-74
2024/04/08 15:50:39;;;;;;;2.30;1.20;;;;;;;26.31;46.82;155339.06;11286248;26;20018;-73
2024/04/08 15:55:42;;;;;;;4.37;1.23;;;;;;;26.30;47.52;155337.75;11285507;26;20026;-73
2024/04/08 16:00:59;;;;;;;2.60;1.08;;;;;;;26.26;47.75;155326.00;11285208;26;20083;-73
2024/04/08 16:06:04;;;;;;;1.98;1.10;;;;;;;26.17;47.69;155305.13;11285274;26;19999;-74
2024/04/08 16:11:17;;;;;;;4.45;1.20;;;;;;;26.09;47.79;155282.94;11254103;26;20014;-73
2024/04/08 16:16:19;;;;;;;5.72;1.95;;;;;;;25.84;49.51;155219.00;11285337;26;19999;-73
2024/04/08 16:21:23;;;;;;;3.50;1.35;;;;;;;25.84;48.72;155219.00;11284390;26;20002;-72
2024/04/08 16:26:26;;;;;;;3.20;1.30;;;;;;;25.85;48.71;155222.94;11285594;26;20002;-72
2024/04/08 16:31:31;;;;;;;2.35;1.50;;;;;;;25.55;49.69;155145.91;11285747;26;20009;-73
2024/04/08 16:36:34;;;;;;;2.88;1.30;;;;;;;25.37;49.79;155100.25;11285407;26;20376;-74
2024/04/08 16:41:37;;;;;;;1.60;1.25;;;;;;;25.37;49.29;155100.25;11284528;26;19999;-74
2024/04/08 16:46:38;;;;;;;1.58;0.88;;;;;;;25.19;48.95;155053.31;11284665;26;19995;-75
2024/04/08 16:51:40;;;;;;;3.83;1.00;;;;;;;25.01;49.82;155007.56;11287808;26;20010;-74
2024/04/08 16:56:42;;;;;;;2.65;1.30;;;;;;;24.63;50.96;154911.13;11287494;26;19995;-74
2024/04/08 17:01:45;;;;;;;1.65;1.33;;;;;;;24.54;51.01;154886.38;11295222;26;20007;-75
2024/04/08 17:06:48;;;;;;;0.93;0.80;;;;;;;24.63;51.00;154909.81;11294485;26;20075;-74
2024/04/08 17:11:52;;;;;;;1.52;1.08;;;;;;;24.26;51.97;154815.94;11294340;26;20372;-74
2024/04/08 17:16:54;;;;;;;1.65;1.17;;;;;;;23.97;53.12;154740.34;11295021;26;20076;-74
2024/04/08 17:21:57;;;;;;;1.67;1.17;;;;;;;23.82;54.06;154702.56;11293702;26;20011;-75
2024/04/08 17:26:59;;;;;;;2.08;1.23;;;;;;;23.50;55.27;154621.69;11292397;26;20010;-74
2024/04/08 17:32:00;;;;;;;1.88;1.02;;;;;;;23.25;56.39;154556.59;11294298;26;20010;-74
2024/04/08 17:37:03;;;;;;;2.83;1.33;;;;;;;23.03;57.04;154501.88;11293462;26;20010;-75
2024/04/08 17:42:04;;;;;;;1.55;1.23;;;;;;;22.79;58.60;154440.59;11292964;26;20010;-75
2024/04/08 17:47:06;;;;;;;2.72;1.20;;;;;;;22.85;59.51;154454.97;11291445;26;19991;-75
2024/04/08 17:52:08;;;;;;;2.22;1.25;;;;;;;22.51;61.24;154367.72;11293336;26;20031;-76
2024/04/08 17:57:10;;;;;;;3.38;1.65;;;;;;;22.19;62.95;154285.72;11293153;26;20469;-74
2024/04/08 18:02:12;;;;;;;2.25;1.20;;;;;;;21.92;63.35;154219.25;11291175;26;20003;-74
2024/04/08 18:07:14;;;;;;;3.08;1.83;;;;;;;21.80;64.64;154188.03;11292721;26;19999;-75
2024/04/08 18:12:16;;;;;;;3.03;1.58;;;;;;;21.60;63.96;154135.94;11292558;26;20013;-75
2024/04/08 18:17:18;;;;;;;1.77;1.23;;;;;;;21.45;63.75;154098.25;11290975;26;19999;-74
2024/04/08 18:22:23;;;;;;;3.00;1.10;;;;;;;21.37;62.64;154077.41;11294184;26;20015;-74
2024/04/08 18:27:24;;;;;;;1.48;1.10;;;;;;;21.23;62.41;154040.94;11294383;26;20035;-75
2024/04/08 18:32:27;;;;;;;4.13;1.40;;;;;;;21.04;63.12;153994.13;11292167;26;20003;-75
2024/04/08 18:37:29;;;;;;;2.30;1.35;;;;;;;21.15;62.36;154022.72;11294260;26;20011;-75
2024/04/08 18:42:32;;;;;;;2.70;1.40;;;;;;;21.32;61.67;154065.69;11292916;26;20095;-74
2024/04/08 18:47:34;;;;;;;3.42;1.88;;;;;;;21.23;61.98;154040.94;11291608;26;20017;-75
2024/04/08 18:52:36;;;;;;;1.98;1.58;;;;;;;21.35;61.27;154073.53;11292942;26;20002;-75
2024/04/08 18:57:38;;;;;;;1.80;1.52;;;;;;;21.29;61.96;154056.53;11293056;26;20010;-75
2024/04/08 19:02:41;;;;;;;2.90;1.50;;;;;;;21.11;62.68;154011.00;11291280;26;20454;-76
2024/04/08 19:07:44;;;;;;;3.40;1.50;;;;;;;21.01;62.68;153985.00;11291065;26;20521;-75
2024/04/08 19:12:46;;;;;;;3.05;1.48;;;;;;;20.87;62.90;153949.91;11290156;26;20077;-76
2024/04/08 19:17:48;;;;;;;2.45;1.48;;;;;;;20.64;63.63;153891.38;11291123;26;20314;-75
2024/04/08 19:22:50;;;;;;;2.25;1.33;;;;;;;20.40;64.33;153830.19;11289306;26;20003;-75
2024/04/08 19:27:54;;;;;;;2.42;1.70;;;;;;;20.33;64.96;153812.03;11290270;26;20079;-75
2024/04/08 19:32:57;;;;;;;3.80;1.20;;;;;;;20.31;64.53;153808.09;11290693;26;19999;-75
2024/04/08 19:37:59;;;;;;;2.25;1.83;;;;;;;20.30;64.54;153804.22;11290785;26;20003;-75
2024/04/08 19:43:01;;;;;;;2.20;1.50;;;;;;;20.36;63.97;153819.78;11290067;26;20035;-76
2024/04/08 19:48:03;;;;;;;3.17;1.67;;;;;;;20.42;63.62;153836.72;11291147;26;20006;-75
2024/04/08 19:53:06;;;;;;;2.00;1.65;;;;;;;20.24;64.82;153789.91;11289469;26;20014;-75
2024/04/08 19:58:08;;;;;;;1.58;1.20;;;;;;;20.09;65.45;153752.19;11290099;26;20031;-75
2024/04/08 20:03:10;;;;;;;1.70;1.20;;;;;;;20.28;64.77;153799.03;11287627;26;20467;-75
2024/04/08 20:08:12;;;;;;;3.95;1.30;;;;;;;20.27;64.64;153797.69;11289800;26;19999;-75
2024/04/08 20:13:14;;;;;;;2.00;1.67;;;;;;;20.21;65.46;153780.81;11285268;26;20335;-76
2024/04/08 20:18:16;;;;;;;1.90;1.13;;;;;;;20.18;65.53;153774.28;11287668;26;20538;-75
2024/04/08 20:23:18;;;;;;;1.80;1.13;;;;;;;20.08;65.98;153748.31;11284630;26;20043;-75
2024/04/08 20:28:21;;;;;;;1.27;0.98;;;;;;;20.00;66.69;153728.78;11284295;26;20051;-75
2024/04/08 20:33:23;;;;;;;2.90;1.17;;;;;;;19.78;67.38;153672.91;11283399;26;20336;-75
2024/04/08 20:38:26;;;;;;;1.00;0.90;;;;;;;19.62;68.39;153632.66;11284119;26;19995;-74
2024/04/08 20:43:31;;;;;;;2.03;1.67;;;;;;;19.44;69.57;153585.81;11283846;26;20018;-74
2024/04/08 20:48:34;;;;;;;1.40;1.20;;;;;;;19.40;69.82;153575.44;11284175;26;20018;-74
2024/04/08 20:53:36;;;;;;;2.00;1.30;;;;;;;19.39;70.61;153572.84;11283500;26;20076;-74
2024/04/08 20:58:38;;;;;;;1.27;1.00;;;;;;;19.25;71.18;153536.41;11281117;26;20005;-74
2024/04/08 21:03:40;;;;;;;2.90;1.23;;;;;;;19.16;71.34;153515.63;11283283;26;20058;-74
2024/04/08 21:08:42;;;;;;;2.83;1.52;;;;;;;19.10;72.23;153500.06;11282920;26;20481;-74
2024/04/08 21:13:44;;;;;;;2.22;1.42;;;;;;;19.15;73.16;153511.75;11282983;26;20007;-73
2024/04/08 21:18:46;;;;;;;2.03;1.77;;;;;;;19.12;72.99;153505.28;11282503;26;20332;-74
2024/04/08 21:23:50;;;;;;;2.83;1.83;;;;;;;19.10;73.78;153500.06;11282551;26;20017;-75
2024/04/08 21:28:52;;;;;;;1.40;1.13;;;;;;;19.40;72.43;153575.44;11282425;26;20025;-73
2024/04/08 21:33:54;;;;;;;1.55;1.02;;;;;;;19.53;72.52;153607.91;11282224;26;20019;-74
2024/04/08 21:38:56;;;;;;;1.67;1.25;;;;;;;19.46;72.27;153591.00;11282046;26;20018;-75
2024/04/08 21:43:58;;;;;;;1.38;1.17;;;;;;;19.34;73.68;153559.81;11282323;26;20003;-74
2024/04/08 21:49:00;;;;;;;1.27;1.10;;;;;;;19.19;74.03;153522.13;11289448;26;20010;-74
2024/04/08 21:54:02;;;;;;;1.52;1.10;;;;;;;19.12;74.75;153505.28;11289213;26;20017;-74
2024/04/08 21:59:04;;;;;;;1.20;1.10;;;;;;;19.20;74.98;153524.72;11288989;26;20034;-74
2024/04/08 22:04:06;;;;;;;0.98;0.88;;;;;;;18.96;76.24;153463.69;11289042;26;20011;-74
2024/04/08 22:09:08;;;;;;;2.50;1.20;;;;;;;18.88;76.56;153444.19;11287823;26;19998;-74
2024/04/08 22:14:11;;;;;;;2.47;1.55;;;;;;;18.91;76.66;153450.72;11289463;26;20031;-74
2024/04/08 22:19:12;;;;;;;1.27;1.17;;;;;;;18.99;76.52;153471.50;11289290;26;19999;-74
2024/04/08 22:24:14;;;;;;;1.08;0.98;;;;;;;19.04;76.86;153484.50;11287076;26;20335;-75
2024/04/08 22:29:16;;;;;;;1.67;1.10;;;;;;;18.90;77.40;153449.41;11288857;26;19995;-74
2024/04/08 22:34:18;;;;;;;1.58;1.02;;;;;;;18.95;76.71;153459.78;11288888;26;20007;-74
2024/04/08 22:39:21;;;;;;;1.20;1.08;;;;;;;18.86;77.77;153439.03;11289332;26;20002;-74
2024/04/08 22:44:23;;;;;;;1.48;0.95;;;;;;;18.80;77.73;153423.41;11289409;26;20006;-75
2024/04/08 22:49:25;;;;;;;1.50;0.95;;;;;;;18.77;78.17;153415.66;11257638;26;20068;-74
2024/04/08 22:54:27;;;;;;;1.42;1.10;;;;;;;18.65;78.54;153384.41;11288553;26;20039;-73
2024/04/08 22:59:29;;;;;;;1.25;1.05;;;;;;;18.70;78.79;153397.44;11288369;26;20027;-73
2024/04/08 23:04:31;;;;;;;1.35;1.05;;;;;;;18.61;78.75;153375.31;11288223;26;20013;-74
2024/04/08 23:09:33;;;;;;;1.20;1.10;;;;;;;18.57;79.46;153364.94;11288885;26;20027;-74